EJU52AV LIRN-LICC
Flight info
| Callsign | EJU52AV |
|---|---|
| Flight time | 0h 40m |
| Altitude | 31000 |
| Route | DELER DCT NERAR DCT PELEN DCT UXUTA |
| Aircraft | A320/M-SDE3FGHIRWY/LB1 |
Departure
| Time | 2026-05-06 20:47 |
|---|---|
| Airport | Naples International Airport (LIRN) |
Arrival
| Time | 2026-05-06 21:28 |
|---|---|
| Airport | Catania-Fontanarossa Airport (LICC) |
| Time | Latitude | Longitude | Altitude | Speed | Heading |
|---|---|---|---|---|---|
| 2026-05-06 20:33 | 40.87889 | 14.28167 | 299 ft | 0 kts | 160° |
| 2026-05-06 20:40 | 40.87897 | 14.28163 | 301 ft | 2 kts | 160° |
| 2026-05-06 20:40 | 40.87913 | 14.28155 | 300 ft | 2 kts | 163° |
| 2026-05-06 20:40 | 40.87929 | 14.28145 | 302 ft | 2 kts | 129° |
| 2026-05-06 20:41 | 40.87939 | 14.28126 | 301 ft | 2 kts | 106° |
| 2026-05-06 20:41 | 40.87941 | 14.28104 | 302 ft | 2 kts | 71° |
| 2026-05-06 20:41 | 40.87934 | 14.28084 | 301 ft | 2 kts | 50° |
| 2026-05-06 20:41 | 40.87932 | 14.28082 | 301 ft | 0 kts | 49° |
| 2026-05-06 20:43 | 40.87934 | 14.28084 | 301 ft | 2 kts | 48° |
| 2026-05-06 20:43 | 40.87989 | 14.28122 | 297 ft | 12 kts | 19° |
| 2026-05-06 20:43 | 40.88047 | 14.28193 | 297 ft | 16 kts | 59° |
| 2026-05-06 20:43 | 40.88059 | 14.28363 | 290 ft | 21 kts | 96° |
| 2026-05-06 20:44 | 40.88040 | 14.28560 | 291 ft | 17 kts | 96° |
| 2026-05-06 20:44 | 40.88103 | 14.28704 | 282 ft | 21 kts | 52° |
| 2026-05-06 20:44 | 40.88211 | 14.28893 | 276 ft | 29 kts | 52° |
| 2026-05-06 20:44 | 40.88336 | 14.29108 | 270 ft | 29 kts | 53° |
| 2026-05-06 20:45 | 40.88458 | 14.29321 | 263 ft | 27 kts | 52° |
| 2026-05-06 20:45 | 40.88577 | 14.29527 | 256 ft | 29 kts | 53° |
| 2026-05-06 20:45 | 40.88692 | 14.29726 | 250 ft | 26 kts | 53° |
| 2026-05-06 20:45 | 40.88808 | 14.29926 | 244 ft | 28 kts | 52° |
| 2026-05-06 20:46 | 40.88921 | 14.30123 | 237 ft | 22 kts | 53° |
| 2026-05-06 20:46 | 40.88971 | 14.30184 | 237 ft | 1 kts | 346° |
| 2026-05-06 20:46 | 40.89016 | 14.30157 | 237 ft | 13 kts | 328° |
| 2026-05-06 20:46 | 40.89053 | 14.30026 | 238 ft | 28 kts | 241° |
| 2026-05-06 20:47 | 40.88818 | 14.29530 | 253 ft | 98 kts | 238° |
| 2026-05-06 20:47 | 40.88356 | 14.28554 | 320 ft | 146 kts | 237° |
| 2026-05-06 20:47 | 40.87812 | 14.27444 | 1018 ft | 143 kts | 229° |
| 2026-05-06 20:47 | 40.87009 | 14.26681 | 1653 ft | 147 kts | 197° |
| 2026-05-06 20:48 | 40.85925 | 14.26641 | 1963 ft | 169 kts | 174° |
| 2026-05-06 20:48 | 40.84676 | 14.26814 | 2298 ft | 188 kts | 174° |
| 2026-05-06 20:48 | 40.83357 | 14.26994 | 2876 ft | 192 kts | 174° |
| 2026-05-06 20:48 | 40.82028 | 14.27172 | 3520 ft | 192 kts | 174° |
| 2026-05-06 20:49 | 40.80693 | 14.27351 | 4154 ft | 192 kts | 175° |
| 2026-05-06 20:49 | 40.79364 | 14.27527 | 4800 ft | 192 kts | 175° |
| 2026-05-06 20:49 | 40.78039 | 14.27700 | 5418 ft | 191 kts | 176° |
| 2026-05-06 20:49 | 40.76711 | 14.27873 | 6035 ft | 192 kts | 176° |
| 2026-05-06 20:50 | 40.75340 | 14.28049 | 6369 ft | 209 kts | 176° |
| 2026-05-06 20:50 | 40.73805 | 14.28243 | 6646 ft | 234 kts | 176° |
| 2026-05-06 20:50 | 40.72100 | 14.28459 | 7013 ft | 256 kts | 176° |
| 2026-05-06 20:50 | 40.70284 | 14.28681 | 7723 ft | 264 kts | 177° |
| 2026-05-06 20:51 | 40.68442 | 14.28843 | 8568 ft | 266 kts | 179° |
| 2026-05-06 20:51 | 40.66587 | 14.28975 | 9452 ft | 268 kts | 180° |
| 2026-05-06 20:51 | 40.64717 | 14.29098 | 10270 ft | 271 kts | 180° |
| 2026-05-06 20:51 | 40.62756 | 14.29225 | 10589 ft | 294 kts | 180° |
| 2026-05-06 20:52 | 40.60631 | 14.29364 | 10831 ft | 316 kts | 180° |
| 2026-05-06 20:52 | 40.58415 | 14.29516 | 11355 ft | 325 kts | 180° |
| 2026-05-06 20:52 | 40.56125 | 14.29681 | 12052 ft | 330 kts | 180° |
| 2026-05-06 20:52 | 40.53809 | 14.29852 | 12762 ft | 335 kts | 180° |
| 2026-05-06 20:53 | 40.51460 | 14.30026 | 13466 ft | 339 kts | 181° |
| 2026-05-06 20:53 | 40.49124 | 14.30197 | 14121 ft | 342 kts | 181° |
| 2026-05-06 20:53 | 40.46726 | 14.30373 | 14745 ft | 346 kts | 181° |
| 2026-05-06 20:53 | 40.44310 | 14.30547 | 15385 ft | 348 kts | 181° |
| 2026-05-06 20:54 | 40.41880 | 14.30721 | 16018 ft | 351 kts | 182° |
| 2026-05-06 20:54 | 40.39447 | 14.30899 | 16643 ft | 354 kts | 182° |
| 2026-05-06 20:54 | 40.36976 | 14.31081 | 17252 ft | 357 kts | 182° |
| 2026-05-06 20:54 | 40.34480 | 14.31263 | 17871 ft | 360 kts | 182° |
| 2026-05-06 20:55 | 40.31962 | 14.31446 | 18467 ft | 363 kts | 182° |
| 2026-05-06 20:55 | 40.29430 | 14.31632 | 18979 ft | 366 kts | 182° |
| 2026-05-06 20:55 | 40.26871 | 14.31817 | 19493 ft | 368 kts | 182° |
| 2026-05-06 20:55 | 40.24298 | 14.32001 | 19994 ft | 371 kts | 182° |
| 2026-05-06 20:56 | 40.21735 | 14.32184 | 20482 ft | 374 kts | 182° |
| 2026-05-06 20:56 | 40.19116 | 14.32371 | 20959 ft | 377 kts | 182° |
| 2026-05-06 20:56 | 40.16480 | 14.32557 | 21435 ft | 380 kts | 182° |
| 2026-05-06 20:56 | 40.13817 | 14.32746 | 21898 ft | 384 kts | 182° |
| 2026-05-06 20:57 | 40.11134 | 14.32936 | 22345 ft | 387 kts | 182° |
| 2026-05-06 20:57 | 40.08462 | 14.33127 | 22778 ft | 390 kts | 182° |
| 2026-05-06 20:57 | 40.05738 | 14.33320 | 23200 ft | 394 kts | 182° |
| 2026-05-06 20:57 | 40.02986 | 14.33516 | 23622 ft | 398 kts | 182° |
| 2026-05-06 20:58 | 40.00212 | 14.33717 | 23980 ft | 401 kts | 181° |
| 2026-05-06 20:58 | 39.97418 | 14.33922 | 24362 ft | 403 kts | 181° |
| 2026-05-06 20:58 | 39.94596 | 14.34131 | 24747 ft | 405 kts | 181° |
| 2026-05-06 20:58 | 39.91770 | 14.34337 | 25132 ft | 407 kts | 181° |
| 2026-05-06 20:59 | 39.88936 | 14.34543 | 25512 ft | 408 kts | 181° |
| 2026-05-06 20:59 | 39.86094 | 14.34744 | 25883 ft | 410 kts | 180° |
| 2026-05-06 20:59 | 39.83235 | 14.34944 | 26248 ft | 412 kts | 180° |
| 2026-05-06 20:59 | 39.80369 | 14.35142 | 26617 ft | 414 kts | 180° |
| 2026-05-06 21:00 | 39.77486 | 14.35346 | 26979 ft | 415 kts | 180° |
| 2026-05-06 21:00 | 39.74598 | 14.35549 | 27343 ft | 417 kts | 180° |
| 2026-05-06 21:00 | 39.71733 | 14.35753 | 27702 ft | 419 kts | 180° |
| 2026-05-06 21:00 | 39.68816 | 14.35963 | 28053 ft | 421 kts | 180° |
| 2026-05-06 21:01 | 39.65890 | 14.36175 | 28403 ft | 422 kts | 179° |
| 2026-05-06 21:01 | 39.62949 | 14.36383 | 28743 ft | 424 kts | 179° |
| 2026-05-06 21:01 | 39.59994 | 14.36593 | 29064 ft | 426 kts | 179° |
| 2026-05-06 21:01 | 39.57015 | 14.36801 | 29370 ft | 428 kts | 179° |
| 2026-05-06 21:02 | 39.54035 | 14.37007 | 29683 ft | 430 kts | 179° |
| 2026-05-06 21:02 | 39.51040 | 14.37216 | 29974 ft | 431 kts | 179° |
| 2026-05-06 21:02 | 39.48040 | 14.37431 | 30230 ft | 432 kts | 179° |
| 2026-05-06 21:02 | 39.45064 | 14.37647 | 30474 ft | 433 kts | 179° |
| 2026-05-06 21:03 | 39.42054 | 14.37863 | 30700 ft | 434 kts | 179° |
| 2026-05-06 21:03 | 39.39036 | 14.38078 | 30927 ft | 434 kts | 179° |
| 2026-05-06 21:03 | 39.36031 | 14.38291 | 30999 ft | 427 kts | 179° |
| 2026-05-06 21:04 | 39.30186 | 14.38700 | 31008 ft | 417 kts | 179° |
| 2026-05-06 21:04 | 39.24389 | 14.39100 | 31012 ft | 415 kts | 179° |
| 2026-05-06 21:05 | 39.18612 | 14.39503 | 31011 ft | 415 kts | 179° |
| 2026-05-06 21:05 | 39.12833 | 14.39913 | 31003 ft | 416 kts | 179° |
| 2026-05-06 21:06 | 39.07051 | 14.40315 | 30999 ft | 416 kts | 179° |
| 2026-05-06 21:06 | 39.01262 | 14.40710 | 30993 ft | 416 kts | 179° |
| 2026-05-06 21:07 | 38.95482 | 14.41120 | 30988 ft | 416 kts | 179° |
| 2026-05-06 21:07 | 38.89692 | 14.41528 | 30986 ft | 416 kts | 179° |
| 2026-05-06 21:08 | 38.83936 | 14.41924 | 30982 ft | 417 kts | 179° |
| 2026-05-06 21:08 | 38.78131 | 14.42312 | 30974 ft | 416 kts | 180° |
| 2026-05-06 21:08 | 38.75239 | 14.42508 | 30797 ft | 415 kts | 179° |
| 2026-05-06 21:09 | 38.72407 | 14.42704 | 30258 ft | 412 kts | 179° |
| 2026-05-06 21:09 | 38.69558 | 14.42904 | 29667 ft | 408 kts | 179° |
| 2026-05-06 21:09 | 38.66701 | 14.43103 | 29061 ft | 404 kts | 179° |
| 2026-05-06 21:09 | 38.63902 | 14.43296 | 28474 ft | 401 kts | 179° |
| 2026-05-06 21:10 | 38.61160 | 14.43485 | 27898 ft | 398 kts | 179° |
| 2026-05-06 21:10 | 38.58401 | 14.43673 | 27336 ft | 395 kts | 179° |
| 2026-05-06 21:10 | 38.55658 | 14.43859 | 26760 ft | 392 kts | 179° |
| 2026-05-06 21:10 | 38.52944 | 14.44045 | 26221 ft | 389 kts | 179° |
| 2026-05-06 21:11 | 38.50252 | 14.44231 | 25673 ft | 387 kts | 179° |
| 2026-05-06 21:11 | 38.47574 | 14.44417 | 25139 ft | 384 kts | 179° |
| 2026-05-06 21:11 | 38.44912 | 14.44602 | 24607 ft | 382 kts | 179° |
| 2026-05-06 21:11 | 38.42272 | 14.44787 | 24077 ft | 380 kts | 180° |
| 2026-05-06 21:12 | 38.39664 | 14.44970 | 23596 ft | 377 kts | 180° |
| 2026-05-06 21:12 | 38.37044 | 14.45151 | 23014 ft | 375 kts | 180° |
| 2026-05-06 21:12 | 38.34444 | 14.45326 | 22471 ft | 373 kts | 180° |
| 2026-05-06 21:12 | 38.31873 | 14.45749 | 21945 ft | 372 kts | 173° |
| 2026-05-06 21:13 | 38.29335 | 14.46338 | 21449 ft | 370 kts | 173° |
| 2026-05-06 21:13 | 38.26806 | 14.46926 | 20958 ft | 368 kts | 174° |
| 2026-05-06 21:13 | 38.24296 | 14.47505 | 20486 ft | 365 kts | 174° |
| 2026-05-06 21:13 | 38.21804 | 14.48078 | 20022 ft | 363 kts | 174° |
| 2026-05-06 21:14 | 38.19326 | 14.48651 | 19574 ft | 361 kts | 174° |
| 2026-05-06 21:14 | 38.16866 | 14.49224 | 19136 ft | 359 kts | 174° |
| 2026-05-06 21:14 | 38.14419 | 14.49794 | 18706 ft | 356 kts | 175° |
| 2026-05-06 21:14 | 38.11985 | 14.50359 | 18284 ft | 354 kts | 175° |
| 2026-05-06 21:15 | 38.09567 | 14.50917 | 17826 ft | 352 kts | 175° |
| 2026-05-06 21:15 | 38.07167 | 14.51467 | 17412 ft | 348 kts | 175° |
| 2026-05-06 21:15 | 38.04796 | 14.52010 | 17001 ft | 345 kts | 175° |
| 2026-05-06 21:15 | 38.02444 | 14.52553 | 16597 ft | 341 kts | 175° |
| 2026-05-06 21:16 | 38.00122 | 14.53089 | 16204 ft | 337 kts | 175° |
| 2026-05-06 21:16 | 37.97831 | 14.53620 | 15794 ft | 334 kts | 174° |
| 2026-05-06 21:16 | 37.95582 | 14.54495 | 15093 ft | 345 kts | 165° |
| 2026-05-06 21:16 | 37.93321 | 14.55597 | 14410 ft | 351 kts | 165° |
| 2026-05-06 21:17 | 37.91043 | 14.56732 | 13880 ft | 351 kts | 164° |
| 2026-05-06 21:17 | 37.89537 | 14.57487 | 13496 ft | 350 kts | 164° |
| 2026-05-06 21:17 | 37.86522 | 14.58997 | 12675 ft | 350 kts | 163° |
| 2026-05-06 21:17 | 37.85025 | 14.59744 | 12305 ft | 348 kts | 163° |
| 2026-05-06 21:18 | 37.82772 | 14.60866 | 11697 ft | 348 kts | 163° |
| 2026-05-06 21:18 | 37.80504 | 14.61992 | 11018 ft | 350 kts | 162° |
| 2026-05-06 21:18 | 37.78244 | 14.63111 | 10428 ft | 348 kts | 162° |
| 2026-05-06 21:18 | 37.76003 | 14.64223 | 10005 ft | 342 kts | 161° |
| 2026-05-06 21:19 | 37.73805 | 14.65315 | 9543 ft | 336 kts | 161° |
| 2026-05-06 21:19 | 37.71661 | 14.66380 | 9077 ft | 323 kts | 161° |
| 2026-05-06 21:19 | 37.69631 | 14.67388 | 8668 ft | 305 kts | 161° |
| 2026-05-06 21:19 | 37.67689 | 14.68346 | 8277 ft | 295 kts | 161° |
| 2026-05-06 21:20 | 37.65800 | 14.69272 | 7876 ft | 287 kts | 161° |
| 2026-05-06 21:20 | 37.63983 | 14.70162 | 7477 ft | 274 kts | 161° |
| 2026-05-06 21:20 | 37.62232 | 14.71022 | 7098 ft | 267 kts | 160° |
| 2026-05-06 21:20 | 37.60526 | 14.71858 | 6746 ft | 259 kts | 160° |
| 2026-05-06 21:21 | 37.58859 | 14.72677 | 6195 ft | 257 kts | 159° |
| 2026-05-06 21:21 | 37.57191 | 14.73493 | 5778 ft | 256 kts | 159° |
| 2026-05-06 21:21 | 37.55537 | 14.74302 | 5406 ft | 254 kts | 158° |
| 2026-05-06 21:21 | 37.53891 | 14.75110 | 5032 ft | 253 kts | 158° |
| 2026-05-06 21:22 | 37.52256 | 14.75912 | 4672 ft | 251 kts | 158° |
| 2026-05-06 21:22 | 37.50634 | 14.76704 | 4272 ft | 250 kts | 158° |
| 2026-05-06 21:22 | 37.49013 | 14.77498 | 3843 ft | 250 kts | 157° |
| 2026-05-06 21:22 | 37.47406 | 14.78323 | 3401 ft | 248 kts | 150° |
| 2026-05-06 21:23 | 37.46058 | 14.79612 | 3112 ft | 240 kts | 131° |
| 2026-05-06 21:23 | 37.45178 | 14.81320 | 3009 ft | 226 kts | 112° |
| 2026-05-06 21:23 | 37.44794 | 14.83163 | 3012 ft | 213 kts | 96° |
| 2026-05-06 21:23 | 37.44830 | 14.84969 | 3008 ft | 201 kts | 85° |
| 2026-05-06 21:24 | 37.44978 | 14.86678 | 2935 ft | 191 kts | 85° |
| 2026-05-06 21:24 | 37.45117 | 14.88302 | 2720 ft | 183 kts | 85° |
| 2026-05-06 21:24 | 37.45251 | 14.89859 | 2490 ft | 178 kts | 85° |
| 2026-05-06 21:24 | 37.45383 | 14.91400 | 2248 ft | 171 kts | 85° |
| 2026-05-06 21:25 | 37.45504 | 14.92811 | 2048 ft | 156 kts | 85° |
| 2026-05-06 21:25 | 37.45614 | 14.94101 | 1845 ft | 143 kts | 86° |
| 2026-05-06 21:25 | 37.45719 | 14.95327 | 1651 ft | 138 kts | 85° |
| 2026-05-06 21:25 | 37.45821 | 14.96533 | 1461 ft | 138 kts | 85° |
| 2026-05-06 21:26 | 37.45923 | 14.97725 | 1281 ft | 136 kts | 84° |
| 2026-05-06 21:26 | 37.46023 | 14.98911 | 1095 ft | 136 kts | 84° |
| 2026-05-06 21:26 | 37.46124 | 15.00090 | 907 ft | 135 kts | 83° |
| 2026-05-06 21:26 | 37.46222 | 15.01249 | 737 ft | 135 kts | 82° |
| 2026-05-06 21:27 | 37.46321 | 15.02426 | 535 ft | 135 kts | 83° |
| 2026-05-06 21:27 | 37.46420 | 15.03599 | 369 ft | 134 kts | 82° |
| 2026-05-06 21:27 | 37.46519 | 15.04762 | 191 ft | 134 kts | 81° |
| 2026-05-06 21:27 | 37.46617 | 15.05914 | 46 ft | 125 kts | 84° |
| 2026-05-06 21:28 | 37.46684 | 15.06707 | 36 ft | 51 kts | 84° |
| 2026-05-06 21:28 | 37.46728 | 15.06922 | 35 ft | 16 kts | 27° |
| 2026-05-06 21:28 | 37.46819 | 15.06892 | 32 ft | 8 kts | 335° |
| 2026-05-06 21:28 | 37.46865 | 15.06874 | 32 ft | 7 kts | 351° |
| 2026-05-06 21:29 | 37.46910 | 15.06867 | 31 ft | 6 kts | 354° |
| 2026-05-06 21:29 | 37.46938 | 15.06864 | 31 ft | 1 kts | 354° |
| 2026-05-06 21:29 | 37.46943 | 15.06863 | 31 ft | 2 kts | 354° |
| 2026-05-06 21:29 | 37.46945 | 15.06863 | 31 ft | 0 kts | 354° |